createdAt,value
2022-11-05T00:02:24.628Z,84.77
2022-11-05T00:05:22.466Z,84.81
2022-11-05T00:08:26.333Z,84.57
2022-11-05T00:11:13.820Z,84.55
2022-11-05T00:14:20.822Z,84.68
2022-11-05T00:17:02.724Z,84.52
2022-11-05T00:19:45.793Z,84.58
2022-11-05T00:22:44.803Z,84.59
2022-11-05T00:25:29.233Z,84.73
2022-11-05T00:28:11.795Z,84.69
2022-11-05T00:30:54.417Z,84.93
2022-11-05T00:33:35.730Z,84.79
2022-11-05T00:36:21.143Z,84.64
2022-11-05T00:39:01.886Z,84.60
2022-11-05T00:42:15.265Z,84.73
2022-11-05T00:45:06.752Z,84.73
2022-11-05T00:48:10.959Z,84.56
2022-11-05T00:50:49.120Z,84.71
2022-11-05T00:53:39.691Z,84.91
2022-11-05T00:56:25.028Z,84.81
2022-11-05T00:59:08.590Z,84.55
2022-11-05T01:01:53.672Z,84.73
2022-11-05T01:04:44.262Z,84.84
2022-11-05T01:07:31.402Z,84.82
2022-11-05T01:10:19.826Z,84.82
2022-11-05T01:13:00.788Z,84.85
2022-11-05T01:15:47.596Z,84.76
2022-11-05T01:18:30.000Z,85.08
2022-11-05T01:21:19.690Z,85.14
2022-11-05T01:24:04.837Z,84.89
2022-11-05T01:26:51.758Z,85.04
2022-11-05T01:29:36.351Z,85.05
2022-11-05T01:32:27.622Z,85.00
2022-11-05T01:35:08.895Z,85.22
2022-11-05T01:37:51.457Z,85.20
2022-11-05T01:40:37.397Z,85.12
2022-11-05T01:43:28.354Z,85.21
2022-11-05T01:46:10.208Z,85.14
2022-11-05T01:49:02.725Z,85.18
2022-11-05T01:51:45.647Z,85.19
2022-11-05T01:54:29.472Z,85.21
2022-11-05T01:57:16.590Z,85.14
2022-11-05T02:00:04.116Z,85.31
2022-11-05T02:02:52.852Z,85.48
2022-11-05T02:05:39.569Z,85.27
2022-11-05T02:08:51.015Z,84.97
2022-11-05T02:11:39.595Z,85.23
2022-11-05T02:14:24.850Z,85.41
2022-11-05T02:17:15.685Z,85.26
2022-11-05T02:20:26.171Z,85.28
2022-11-05T02:23:49.663Z,85.36
2022-11-05T02:26:37.808Z,85.29
2022-11-05T02:29:51.068Z,85.44
2022-11-05T02:32:41.844Z,85.13
2022-11-05T02:35:33.212Z,85.04
2022-11-05T02:38:22.686Z,85.03
2022-11-05T02:41:20.562Z,85.27
2022-11-05T02:44:24.219Z,85.52
2022-11-05T02:47:23.567Z,85.73
2022-11-05T02:50:19.226Z,85.36
2022-11-05T02:53:12.503Z,85.45
2022-11-05T02:56:06.919Z,85.38
2022-11-05T02:58:52.632Z,85.24
2022-11-05T03:01:27.276Z,85.30
2022-11-05T03:04:07.747Z,85.24
2022-11-05T03:06:54.385Z,85.60
2022-11-05T03:09:50.926Z,85.50
2022-11-05T03:13:01.955Z,85.85
2022-11-05T03:15:52.780Z,85.60
2022-11-05T03:18:43.184Z,85.57
2022-11-05T03:22:05.256Z,85.34
2022-11-05T03:24:54.231Z,85.67
2022-11-05T03:27:50.016Z,85.72
2022-11-05T03:30:36.862Z,85.77
2022-11-05T03:33:25.862Z,85.83
2022-11-05T03:36:12.308Z,85.40
2022-11-05T03:38:58.183Z,85.63
2022-11-05T03:41:48.797Z,85.60
2022-11-05T03:44:44.012Z,85.76
2022-11-05T03:47:34.277Z,85.91
2022-11-05T03:50:28.383Z,85.65
2022-11-05T03:53:25.347Z,85.86
2022-11-05T03:56:24.821Z,85.88
2022-11-05T03:59:07.026Z,85.98
2022-11-05T04:01:43.391Z,86.06
2022-11-05T04:04:20.496Z,86.08
2022-11-05T04:07:25.326Z,85.85
2022-11-05T04:10:28.271Z,85.53
2022-11-05T04:13:30.751Z,85.89
2022-11-05T04:16:39.368Z,85.96
2022-11-05T04:19:40.565Z,86.20
2022-11-05T04:22:43.819Z,86.11
2022-11-05T04:25:28.499Z,85.81
2022-11-05T04:28:09.954Z,85.90
2022-11-05T04:30:53.895Z,86.22
2022-11-05T04:33:33.403Z,86.25
2022-11-05T04:36:15.912Z,85.90
2022-11-05T04:38:58.172Z,85.92
2022-11-05T04:41:44.826Z,85.94
2022-11-05T04:44:24.017Z,86.01
2022-11-05T04:47:03.804Z,85.71
2022-11-05T04:49:51.265Z,85.48
2022-11-05T04:52:32.606Z,85.83
2022-11-05T04:55:15.969Z,86.01
2022-11-05T04:58:02.529Z,85.99
2022-11-05T05:00:43.756Z,85.95
2022-11-05T05:03:25.710Z,86.22
2022-11-05T05:06:07.101Z,86.24
2022-11-05T05:08:57.013Z,85.71
2022-11-05T05:11:37.074Z,85.70
2022-11-05T05:14:18.514Z,85.65
2022-11-05T05:17:07.479Z,85.39
2022-11-05T05:20:11.904Z,85.91
2022-11-05T05:22:58.886Z,86.25
2022-11-05T05:25:40.874Z,85.93
2022-11-05T05:28:30.444Z,85.76
2022-11-05T05:31:20.548Z,85.94
2022-11-05T05:33:59.989Z,86.11
2022-11-05T05:36:42.500Z,85.70
2022-11-05T05:39:19.507Z,85.57
2022-11-05T05:42:02.443Z,85.68
2022-11-05T05:44:47.329Z,85.63
2022-11-05T05:47:33.683Z,85.68
2022-11-05T05:50:15.371Z,85.81
2022-11-05T05:53:01.570Z,85.92
2022-11-05T05:55:56.434Z,85.89
2022-11-05T05:58:42.423Z,85.96
2022-11-05T06:01:25.821Z,85.98
2022-11-05T06:04:09.125Z,85.90
2022-11-05T06:06:52.801Z,86.04
2022-11-05T06:09:35.458Z,86.34
2022-11-05T06:12:16.848Z,86.47
2022-11-05T06:15:06.247Z,86.51
2022-11-05T06:17:51.368Z,86.57
2022-11-05T06:20:42.524Z,86.27
2022-11-05T06:23:30.575Z,86.36
2022-11-05T06:26:13.325Z,86.46
2022-11-05T06:28:59.116Z,86.57
2022-11-05T06:31:43.753Z,86.65
2022-11-05T06:34:26.174Z,86.71
2022-11-05T06:37:07.378Z,86.41
2022-11-05T06:39:48.614Z,86.62
2022-11-05T06:42:30.586Z,86.59
2022-11-05T06:45:13.706Z,86.34
2022-11-05T06:48:02.077Z,86.31
2022-11-05T06:50:45.950Z,86.24
2022-11-05T06:53:25.323Z,86.55
2022-11-05T06:56:10.200Z,86.57
2022-11-05T06:58:52.023Z,86.62
2022-11-05T07:01:35.726Z,86.62
2022-11-05T07:04:19.023Z,86.51
2022-11-05T07:06:59.838Z,86.63
2022-11-05T07:09:44.281Z,86.55
2022-11-05T07:12:26.468Z,86.64
2022-11-05T07:15:17.368Z,86.36
2022-11-05T07:18:03.229Z,86.58
2022-11-05T07:20:47.726Z,86.67
2022-11-05T07:23:27.723Z,86.46
2022-11-05T07:26:16.670Z,86.47
2022-11-05T07:28:56.563Z,86.72
2022-11-05T07:31:46.186Z,86.46
2022-11-05T07:34:21.648Z,86.59
2022-11-05T07:37:04.000Z,86.72
2022-11-05T07:39:43.045Z,86.57
2022-11-05T07:42:31.672Z,86.74
2022-11-05T07:45:11.023Z,87.13
2022-11-05T07:48:04.239Z,86.72
2022-11-05T07:50:45.090Z,86.60
2022-11-05T07:53:28.323Z,86.58
2022-11-05T07:56:07.887Z,86.66
2022-11-05T07:58:49.500Z,86.86
2022-11-05T08:01:32.050Z,86.92
2022-11-05T08:04:17.691Z,86.78
2022-11-05T08:06:58.444Z,86.72
2022-11-05T08:09:49.888Z,86.90
2022-11-05T08:12:30.081Z,86.94
2022-11-05T08:15:16.157Z,86.86
2022-11-05T08:18:19.492Z,86.81
2022-11-05T08:20:58.830Z,86.88
2022-11-05T08:23:42.450Z,87.07
2022-11-05T08:26:30.366Z,87.10
2022-11-05T08:29:12.461Z,87.12
2022-11-05T08:31:55.681Z,87.05
2022-11-05T08:34:35.877Z,86.84
2022-11-05T08:37:19.963Z,87.12
2022-11-05T08:40:03.092Z,86.98
2022-11-05T08:42:44.551Z,87.10
2022-11-05T08:45:30.547Z,87.17
2022-11-05T08:48:13.497Z,87.14
2022-11-05T08:50:50.649Z,86.84
2022-11-05T08:53:27.933Z,86.82
2022-11-05T08:56:03.432Z,86.92
2022-11-05T08:58:51.861Z,86.83
2022-11-05T09:01:39.380Z,86.55
2022-11-05T09:04:22.806Z,86.64
2022-11-05T09:07:01.070Z,86.61
2022-11-05T09:10:00.190Z,86.64
2022-11-05T09:12:49.665Z,86.48
2022-11-05T09:15:51.535Z,86.52
2022-11-05T09:18:48.285Z,86.49
2022-11-05T09:21:39.783Z,86.69
2022-11-05T09:24:43.266Z,86.74
2022-11-05T09:27:57.401Z,86.57
2022-11-05T09:31:19.619Z,86.19
2022-11-05T09:34:12.515Z,86.16
2022-11-05T09:37:04.648Z,86.11
2022-11-05T09:39:53.983Z,86.36
2022-11-05T09:43:00.218Z,86.39
2022-11-05T09:46:03.235Z,86.20
2022-11-05T09:48:52.996Z,86.40
2022-11-05T09:52:15.289Z,86.28
2022-11-05T09:55:04.458Z,86.19
2022-11-05T09:58:29.001Z,86.01
2022-11-05T10:00:58.849Z,86.07
2022-11-05T10:03:30.301Z,85.94
2022-11-05T10:06:11.496Z,85.90
2022-11-05T10:08:47.185Z,85.66
2022-11-05T10:11:30.677Z,85.68
2022-11-05T10:14:07.122Z,85.55
2022-11-05T10:16:42.347Z,85.37
2022-11-05T10:19:24.789Z,85.24
2022-11-05T10:22:19.975Z,85.08
2022-11-05T10:24:50.987Z,85.09
2022-11-05T10:27:34.918Z,85.05
2022-11-05T10:30:04.700Z,85.05
2022-11-05T10:32:35.834Z,85.12
2022-11-05T10:35:08.883Z,85.12
2022-11-05T10:37:40.821Z,84.96
2022-11-05T10:40:45.902Z,85.13
2022-11-05T10:43:33.354Z,85.05
2022-11-05T10:46:32.897Z,85.02
2022-11-05T10:49:33.047Z,84.83
2022-11-05T10:52:22.336Z,84.60
2022-11-05T10:54:54.116Z,84.47
2022-11-05T10:57:33.012Z,84.44
2022-11-05T11:00:17.406Z,84.23
2022-11-05T11:02:49.760Z,84.17
2022-11-05T11:05:22.973Z,84.36
2022-11-05T11:08:12.659Z,84.29
2022-11-05T11:10:52.064Z,84.23
2022-11-05T11:13:30.134Z,84.09
2022-11-05T11:16:29.484Z,83.26
2022-11-05T11:19:01.282Z,83.13
2022-11-05T11:21:32.722Z,83.27
2022-11-05T11:24:04.109Z,83.24
2022-11-05T11:26:37.660Z,82.83
2022-11-05T11:29:20.460Z,82.64
2022-11-05T11:31:49.167Z,83.05
2022-11-05T11:34:27.884Z,83.05
2022-11-05T11:37:07.492Z,83.03
2022-11-05T11:39:44.560Z,82.35
2022-11-05T11:42:27.910Z,82.16
2022-11-05T11:44:59.527Z,82.21
2022-11-05T11:47:30.569Z,81.43
2022-11-05T11:50:02.600Z,81.05
2022-11-05T11:52:37.319Z,81.43
2022-11-05T11:55:12.089Z,81.56
2022-11-05T11:58:05.401Z,81.57
2022-11-05T12:00:46.960Z,81.55
2022-11-05T12:03:36.163Z,80.62
2022-11-05T12:06:13.746Z,80.35
2022-11-05T12:08:58.127Z,80.54
2022-11-05T12:11:40.223Z,80.55
2022-11-05T12:14:46.627Z,79.89
2022-11-05T12:17:27.463Z,79.95
2022-11-05T12:20:15.316Z,79.18
2022-11-05T12:22:53.029Z,79.54
2022-11-05T12:25:40.702Z,79.62
2022-11-05T12:28:17.945Z,79.65
2022-11-05T12:31:06.072Z,79.66
2022-11-05T12:33:52.879Z,79.08
2022-11-05T12:36:33.313Z,78.70
2022-11-05T12:39:20.835Z,78.53
2022-11-05T12:42:02.827Z,78.50
2022-11-05T12:44:50.807Z,79.00
2022-11-05T12:47:52.101Z,78.79
2022-11-05T12:50:26.673Z,78.74
2022-11-05T12:53:33.298Z,78.85
2022-11-05T12:56:06.713Z,77.98
2022-11-05T12:58:40.528Z,77.84
2022-11-05T13:01:15.205Z,77.90
2022-11-05T13:04:09.145Z,78.21
2022-11-05T13:06:41.303Z,78.25
2022-11-05T13:09:19.148Z,77.81
2022-11-05T13:11:50.023Z,77.81
2022-11-05T13:14:24.183Z,77.77
2022-11-05T13:17:01.670Z,76.84
2022-11-05T13:19:42.210Z,77.06
2022-11-05T13:22:44.752Z,77.03
2022-11-05T13:25:22.749Z,76.78
2022-11-05T13:27:59.705Z,76.24
2022-11-05T13:30:38.880Z,76.68
2022-11-05T13:33:12.298Z,76.36
2022-11-05T13:36:15.562Z,76.47
2022-11-05T13:39:00.180Z,76.53
2022-11-05T13:41:40.278Z,76.70
2022-11-05T13:44:37.460Z,76.51
2022-11-05T13:47:16.284Z,76.19
2022-11-05T13:49:57.315Z,76.17
2022-11-05T13:52:45.082Z,76.13
2022-11-05T13:55:35.356Z,75.73
2022-11-05T13:58:04.578Z,75.53
2022-11-05T14:00:39.242Z,75.75
2022-11-05T14:03:18.849Z,75.90
2022-11-05T14:05:58.155Z,75.91
2022-11-05T14:08:29.210Z,75.79
2022-11-05T14:11:03.142Z,75.55
2022-11-05T14:13:32.400Z,75.31
2022-11-05T14:16:10.363Z,75.32
2022-11-05T14:18:41.267Z,75.56
2022-11-05T14:21:28.290Z,75.58
2022-11-05T14:24:19.801Z,75.25
2022-11-05T14:27:00.741Z,75.24
2022-11-05T14:29:44.620Z,75.12
2022-11-05T14:32:22.163Z,75.14
2022-11-05T14:35:01.419Z,75.15
2022-11-05T14:37:56.206Z,74.97
2022-11-05T14:40:42.617Z,75.01
2022-11-05T14:43:14.389Z,75.15
2022-11-05T14:46:06.562Z,75.19
2022-11-05T14:48:53.086Z,75.19
2022-11-05T14:51:38.396Z,75.04
2022-11-05T14:54:18.961Z,74.99
2022-11-05T14:56:56.321Z,74.98
2022-11-05T14:59:25.277Z,74.55
2022-11-05T15:02:04.353Z,74.63
2022-11-05T15:04:45.882Z,74.70
2022-11-05T15:07:33.927Z,74.71
2022-11-05T15:10:10.661Z,74.72
2022-11-05T15:12:48.118Z,74.71
2022-11-05T15:15:24.411Z,74.66
2022-11-05T15:18:06.905Z,74.66
2022-11-05T15:20:42.315Z,74.57
2022-11-05T15:23:18.364Z,74.58
2022-11-05T15:26:02.046Z,74.51
2022-11-05T15:28:54.565Z,74.80
2022-11-05T15:31:36.536Z,74.82
2022-11-05T15:34:20.098Z,74.84
2022-11-05T15:36:53.420Z,74.74
2022-11-05T15:39:30.520Z,74.67
2022-11-05T15:42:05.054Z,74.77
2022-11-05T15:44:39.659Z,74.82
2022-11-05T15:47:23.387Z,74.82
2022-11-05T15:49:57.713Z,74.85
2022-11-05T15:52:37.387Z,74.83
2022-11-05T15:55:26.760Z,74.76
2022-11-05T15:58:07.203Z,74.69
2022-11-05T16:00:37.064Z,74.60
2022-11-05T16:03:15.578Z,74.63
2022-11-05T16:05:48.154Z,74.74
2022-11-05T16:08:21.338Z,74.76
2022-11-05T16:10:53.568Z,74.80
2022-11-05T16:13:38.948Z,74.97
2022-11-05T16:16:31.682Z,74.94
2022-11-05T16:19:00.795Z,74.87
2022-11-05T16:21:29.638Z,74.84
2022-11-05T16:23:59.966Z,74.93
2022-11-05T16:27:01.691Z,74.66
2022-11-05T16:29:35.218Z,74.45
2022-11-05T16:32:14.846Z,74.47
2022-11-05T16:34:49.671Z,74.53
2022-11-05T16:37:21.542Z,74.49
2022-11-05T16:39:51.327Z,74.50
2022-11-05T16:42:38.133Z,74.67
2022-11-05T16:45:11.506Z,74.57
2022-11-05T16:47:40.090Z,74.43
2022-11-05T16:50:24.436Z,74.70
2022-11-05T16:52:53.234Z,74.75
2022-11-05T16:55:22.384Z,74.95
2022-11-05T16:57:55.669Z,74.87
2022-11-05T17:00:25.298Z,74.66
2022-11-05T17:02:54.048Z,74.55
2022-11-05T17:05:25.169Z,74.66
2022-11-05T17:07:55.430Z,74.48
2022-11-05T17:10:25.886Z,74.61
2022-11-05T17:12:54.686Z,74.79
2022-11-05T17:15:27.721Z,74.85
2022-11-05T17:17:57.041Z,75.16
2022-11-05T17:20:39.787Z,75.02
2022-11-05T17:23:15.051Z,75.15
2022-11-05T17:25:47.123Z,74.98
2022-11-05T17:28:17.015Z,74.94
2022-11-05T17:30:52.361Z,74.93
2022-11-05T17:33:23.446Z,74.92
2022-11-05T17:35:52.348Z,74.75
2022-11-05T17:38:22.821Z,74.78
2022-11-05T17:40:52.331Z,74.85
2022-11-05T17:43:21.234Z,75.11
2022-11-05T17:45:52.648Z,75.39
2022-11-05T17:48:22.074Z,75.28
2022-11-05T17:50:51.381Z,74.97
2022-11-05T17:53:20.664Z,75.12
2022-11-05T17:55:49.811Z,74.94
2022-11-05T17:58:18.386Z,75.13
2022-11-05T18:00:47.956Z,75.35
2022-11-05T18:03:29.121Z,75.39
2022-11-05T18:06:20.250Z,75.47
2022-11-05T18:09:09.935Z,75.34
2022-11-05T18:11:57.418Z,75.41
2022-11-05T18:14:43.085Z,75.38
2022-11-05T18:17:31.144Z,75.23
2022-11-05T18:20:21.908Z,75.31
2022-11-05T18:23:07.650Z,75.41
2022-11-05T18:26:07.514Z,75.45
2022-11-05T18:28:59.430Z,75.57
2022-11-05T18:31:54.791Z,75.50
2022-11-05T18:34:45.793Z,75.50
2022-11-05T18:37:37.213Z,75.51
2022-11-05T18:43:21.301Z,75.63
2022-11-05T18:45:56.738Z,75.69
2022-11-05T18:48:25.871Z,75.71
2022-11-05T18:50:57.770Z,75.66
2022-11-05T18:53:30.874Z,75.71
2022-11-05T18:55:59.436Z,75.64
2022-11-05T18:58:27.986Z,75.68
2022-11-05T19:00:59.279Z,75.71
2022-11-05T19:03:31.474Z,75.68
2022-11-05T19:06:04.310Z,75.56
2022-11-05T19:08:33.885Z,75.55
2022-11-05T19:11:13.951Z,75.62
2022-11-05T19:13:43.722Z,75.71
2022-11-05T19:16:18.153Z,75.67
2022-11-05T19:18:47.327Z,75.61
2022-11-05T19:21:24.698Z,75.45
2022-11-05T19:23:54.140Z,75.54
2022-11-05T19:26:28.621Z,75.60
2022-11-05T19:29:00.347Z,75.63
2022-11-05T19:31:31.057Z,75.44
2022-11-05T19:34:01.330Z,75.90
2022-11-05T19:36:30.541Z,76.04
2022-11-05T19:39:05.158Z,75.73
2022-11-05T19:41:33.797Z,75.85
2022-11-05T19:48:00.327Z,75.94
2022-11-05T19:50:29.204Z,76.10
2022-11-05T19:52:57.814Z,76.06
2022-11-05T19:55:26.654Z,75.82
2022-11-05T19:57:55.663Z,75.92
2022-11-05T20:00:24.261Z,76.03
2022-11-05T20:02:53.159Z,76.19
2022-11-05T20:05:22.393Z,76.09
2022-11-05T20:07:53.031Z,76.06
2022-11-05T20:10:22.156Z,76.20
2022-11-05T20:12:51.502Z,76.14
2022-11-05T20:15:20.243Z,76.01
2022-11-05T20:17:53.044Z,76.07
2022-11-05T20:20:21.985Z,76.23
2022-11-05T20:22:52.736Z,76.02
2022-11-05T20:25:21.767Z,76.28
2022-11-05T20:27:51.150Z,76.25
2022-11-05T20:30:20.835Z,76.21
2022-11-05T20:32:56.897Z,75.96
2022-11-05T20:35:25.758Z,75.89
2022-11-05T20:37:54.678Z,75.65
2022-11-05T20:40:23.258Z,75.77
2022-11-05T20:42:52.500Z,75.98
2022-11-05T20:45:21.216Z,76.07
2022-11-05T20:47:50.150Z,76.32
2022-11-05T20:50:18.982Z,76.41
2022-11-05T20:52:47.848Z,76.44
2022-11-05T20:55:16.473Z,76.57
2022-11-05T20:57:45.375Z,76.67
2022-11-05T21:00:14.872Z,76.60
2022-11-05T21:02:43.597Z,76.59
2022-11-05T21:05:12.596Z,76.43
2022-11-05T21:07:41.513Z,76.38
2022-11-05T21:10:10.159Z,76.58
2022-11-05T21:12:40.541Z,76.50
2022-11-05T21:15:09.944Z,76.52
2022-11-05T21:17:38.581Z,76.55
2022-11-05T21:20:08.149Z,76.52
2022-11-05T21:22:36.760Z,76.57
2022-11-05T21:25:05.710Z,76.61
2022-11-05T21:27:34.770Z,76.59
2022-11-05T21:30:04.213Z,76.33
2022-11-05T21:32:32.849Z,76.29
2022-11-05T21:35:02.349Z,76.07
2022-11-05T21:37:31.931Z,76.27
2022-11-05T21:40:00.663Z,76.26
2022-11-05T21:42:30.263Z,76.26
2022-11-05T21:45:00.505Z,76.28
2022-11-05T21:47:29.720Z,76.43
2022-11-05T21:49:58.728Z,76.59
2022-11-05T21:52:45.969Z,76.46
2022-11-05T21:55:33.860Z,76.74
2022-11-05T21:58:28.483Z,76.74
2022-11-05T22:00:57.583Z,76.63
2022-11-05T22:03:26.590Z,76.64
2022-11-05T22:05:57.749Z,76.61
2022-11-05T22:08:27.604Z,76.58
2022-11-05T22:10:56.467Z,76.57
2022-11-05T22:13:25.388Z,76.59
2022-11-05T22:15:57.701Z,76.69
2022-11-05T22:18:26.531Z,76.84
2022-11-05T22:20:55.198Z,76.62
2022-11-05T22:23:23.769Z,76.71
2022-11-05T22:26:00.443Z,76.80
2022-11-05T22:28:29.637Z,76.78
2022-11-05T22:30:58.387Z,76.72
2022-11-05T22:33:27.056Z,76.90
2022-11-05T22:35:56.235Z,76.89
2022-11-05T22:38:24.918Z,76.90
2022-11-05T22:40:53.875Z,76.86
2022-11-05T22:43:23.112Z,76.77
2022-11-05T22:45:51.849Z,76.78
2022-11-05T22:48:20.597Z,76.61
2022-11-05T22:50:49.858Z,76.57
2022-11-05T22:53:18.332Z,76.48
2022-11-05T22:55:46.835Z,76.47
2022-11-05T22:58:16.084Z,76.48
2022-11-05T23:00:44.920Z,76.75
2022-11-05T23:03:13.731Z,76.73
2022-11-05T23:05:42.494Z,76.75
2022-11-05T23:08:29.754Z,76.70
2022-11-05T23:11:17.681Z,76.53
2022-11-05T23:13:46.259Z,76.50
2022-11-05T23:16:34.106Z,76.30
2022-11-05T23:19:21.512Z,76.26
2022-11-05T23:22:09.775Z,76.41
2022-11-05T23:24:38.468Z,76.66
2022-11-05T23:27:07.848Z,76.95
2022-11-05T23:29:36.660Z,77.19
2022-11-05T23:32:24.118Z,77.36
2022-11-05T23:34:54.813Z,77.09
2022-11-05T23:37:47.431Z,77.09
2022-11-05T23:40:28.611Z,77.01
2022-11-05T23:43:16.629Z,77.01
2022-11-05T23:45:58.023Z,77.17
2022-11-05T23:48:37.700Z,77.34
2022-11-05T23:51:10.636Z,77.45
2022-11-05T23:53:41.679Z,77.26
2022-11-05T23:56:13.496Z,77.06
2022-11-05T23:58:42.924Z,77.18
